createdAt,value
2022-11-21T00:01:20.557Z,50.60
2022-11-21T00:03:48.052Z,52.92
2022-11-21T00:06:15.630Z,54.72
2022-11-21T00:08:42.648Z,61.42
2022-11-21T00:11:09.491Z,61.97
2022-11-21T00:13:36.791Z,65.50
2022-11-21T00:16:07.927Z,58.28
2022-11-21T00:18:35.643Z,59.92
2022-11-21T00:21:14.288Z,58.55
2022-11-21T00:23:41.234Z,64.15
2022-11-21T00:26:09.388Z,55.45
2022-11-21T00:28:36.501Z,60.33
2022-11-21T00:31:04.407Z,55.42
2022-11-21T00:33:31.560Z,67.03
2022-11-21T00:35:58.403Z,66.63
2022-11-21T00:38:25.304Z,56.80
2022-11-21T00:40:52.060Z,56.05
2022-11-21T00:43:18.837Z,65.10
2022-11-21T00:45:45.644Z,59.80
2022-11-21T00:48:12.396Z,62.60
2022-11-21T00:50:39.172Z,69.57
2022-11-21T00:53:06.007Z,63.97
2022-11-21T00:55:32.839Z,58.85
2022-11-21T00:57:59.609Z,59.45
2022-11-21T01:00:26.471Z,54.83
2022-11-21T01:02:53.265Z,66.97
2022-11-21T01:05:20.079Z,71.57
2022-11-21T01:07:49.216Z,52.53
2022-11-21T01:10:16.063Z,61.95
2022-11-21T01:12:44.511Z,60.50
2022-11-21T01:15:11.676Z,69.32
2022-11-21T01:17:38.469Z,66.40
2022-11-21T01:20:07.061Z,63.40
2022-11-21T01:22:33.887Z,64.60
2022-11-21T01:25:00.696Z,64.93
2022-11-21T01:27:27.492Z,63.40
2022-11-21T01:29:54.252Z,62.38
2022-11-21T01:32:21.021Z,61.22
2022-11-21T01:34:47.820Z,67.07
2022-11-21T01:37:14.620Z,65.60
2022-11-21T01:39:41.484Z,62.97
2022-11-21T01:42:12.395Z,62.55
2022-11-21T01:44:53.570Z,63.97
2022-11-21T01:47:22.724Z,63.47
2022-11-21T01:49:51.927Z,65.60
2022-11-21T01:52:25.267Z,74.25
2022-11-21T01:55:10.184Z,70.57
2022-11-21T01:57:48.204Z,62.10
2022-11-21T02:00:26.423Z,66.57
2022-11-21T02:02:57.759Z,68.18
2022-11-21T02:05:28.185Z,62.08
2022-11-21T02:08:10.916Z,62.17
2022-11-21T02:10:40.231Z,63.20
2022-11-21T02:13:06.992Z,57.83
2022-11-21T02:15:33.771Z,62.58
2022-11-21T02:18:00.595Z,65.03
2022-11-21T02:20:29.106Z,60.65
2022-11-21T02:23:21.314Z,58.78
2022-11-21T02:25:48.167Z,53.47
2022-11-21T02:28:19.372Z,65.28
2022-11-21T02:30:46.701Z,62.83
2022-11-21T02:33:13.864Z,67.85
2022-11-21T02:35:41.085Z,67.53
2022-11-21T02:38:33.475Z,59.40
2022-11-21T02:41:26.362Z,62.15
2022-11-21T02:43:59.456Z,56.28
2022-11-21T02:46:29.630Z,58.80
2022-11-21T02:48:58.507Z,74.55
2022-11-21T02:51:25.287Z,64.13
2022-11-21T02:53:52.091Z,64.85
2022-11-21T02:56:18.936Z,61.03
2022-11-21T02:58:46.195Z,62.97
2022-11-21T03:01:12.992Z,55.65
2022-11-21T03:03:39.963Z,58.13
2022-11-21T03:06:06.760Z,63.80
2022-11-21T03:08:33.593Z,61.50
2022-11-21T03:11:00.355Z,64.25
2022-11-21T03:13:27.162Z,52.65
2022-11-21T03:15:55.504Z,57.30
2022-11-21T03:18:22.311Z,61.72
2022-11-21T03:20:49.078Z,60.00
2022-11-21T03:23:15.944Z,62.78
2022-11-21T03:25:42.776Z,60.28
2022-11-21T03:28:09.584Z,52.78
2022-11-21T03:30:36.384Z,56.88
2022-11-21T03:33:03.129Z,66.07
2022-11-21T03:35:29.946Z,69.03
2022-11-21T03:38:21.076Z,64.05
2022-11-21T03:40:47.854Z,59.92
2022-11-21T03:43:14.712Z,64.38
2022-11-21T03:45:41.605Z,65.50
2022-11-21T03:48:08.463Z,59.70
2022-11-21T03:50:35.286Z,64.72
2022-11-21T03:53:02.066Z,68.63
2022-11-21T03:55:28.878Z,57.85
2022-11-21T03:57:55.774Z,62.38
2022-11-21T04:00:22.705Z,71.70
2022-11-21T04:02:49.496Z,57.78
2022-11-21T04:05:16.383Z,58.15
2022-11-21T04:07:43.224Z,57.55
2022-11-21T04:10:10.356Z,59.60
2022-11-21T04:12:37.192Z,59.00
2022-11-21T04:15:07.061Z,58.20
2022-11-21T04:17:38.768Z,62.63
2022-11-21T04:20:05.939Z,53.15
2022-11-21T04:22:32.700Z,52.55
2022-11-21T04:24:59.466Z,60.75
2022-11-21T04:27:26.300Z,68.25
2022-11-21T04:29:53.071Z,56.88
2022-11-21T04:32:19.839Z,64.03
2022-11-21T04:34:46.634Z,57.67
2022-11-21T04:37:13.550Z,60.60
2022-11-21T04:39:40.439Z,54.58
2022-11-21T04:42:07.243Z,54.30
2022-11-21T04:44:34.047Z,55.65
2022-11-21T04:47:05.102Z,63.97
2022-11-21T04:49:32.289Z,55.38
2022-11-21T04:51:59.061Z,51.38
2022-11-21T04:54:26.124Z,71.68
2022-11-21T04:56:53.163Z,59.33
2022-11-21T04:59:19.940Z,62.33
2022-11-21T05:01:46.757Z,48.90
2022-11-21T05:04:13.605Z,51.78
2022-11-21T05:06:40.428Z,68.63
2022-11-21T05:09:07.220Z,55.55
2022-11-21T05:11:52.457Z,59.72
2022-11-21T05:14:19.261Z,55.10
2022-11-21T05:16:46.081Z,56.72
2022-11-21T05:19:12.985Z,61.55
2022-11-21T05:21:39.761Z,56.65
2022-11-21T05:24:06.967Z,59.83
2022-11-21T05:26:33.733Z,71.43
2022-11-21T05:29:00.638Z,66.40
2022-11-21T05:31:27.428Z,52.75
2022-11-21T05:33:54.345Z,54.88
2022-11-21T05:36:21.190Z,47.65
2022-11-21T05:38:48.054Z,54.78
2022-11-21T05:41:14.872Z,55.63
2022-11-21T05:43:47.479Z,61.05
2022-11-21T05:46:16.814Z,50.22
2022-11-21T05:48:43.689Z,53.72
2022-11-21T05:51:11.584Z,60.78
2022-11-21T05:53:38.490Z,59.78
2022-11-21T05:56:13.480Z,56.78
2022-11-21T05:58:40.615Z,61.00
2022-11-21T06:01:08.542Z,57.95
2022-11-21T06:03:38.467Z,52.30
2022-11-21T06:06:13.663Z,52.90
2022-11-21T06:08:45.978Z,61.63
2022-11-21T06:11:15.048Z,59.25
2022-11-21T06:13:42.441Z,54.38
2022-11-21T06:16:11.867Z,52.67
2022-11-21T06:18:41.167Z,51.75
2022-11-21T06:21:17.042Z,56.60
2022-11-21T06:23:44.725Z,56.45
2022-11-21T06:26:16.614Z,53.45
2022-11-21T06:28:45.065Z,56.63
2022-11-21T06:31:21.525Z,53.33
2022-11-21T06:33:51.596Z,55.67
2022-11-21T06:36:18.896Z,52.92
2022-11-21T06:38:46.338Z,60.33
2022-11-21T06:41:18.321Z,56.88
2022-11-21T06:43:46.120Z,70.18
2022-11-21T06:46:14.190Z,61.08
2022-11-21T06:48:42.060Z,57.03
2022-11-21T06:51:23.329Z,56.15
2022-11-21T06:53:58.541Z,48.33
2022-11-21T06:56:27.424Z,59.08
2022-11-21T06:58:54.472Z,56.38
2022-11-21T07:01:21.731Z,61.38
2022-11-21T07:03:48.692Z,52.25
2022-11-21T07:06:15.545Z,57.50
2022-11-21T07:08:42.347Z,50.40
2022-11-21T07:11:28.270Z,54.58
2022-11-21T07:13:55.164Z,45.08
2022-11-21T07:16:22.230Z,64.63
2022-11-21T07:18:49.633Z,55.10
2022-11-21T07:21:16.618Z,48.63
2022-11-21T07:23:43.391Z,43.30
2022-11-21T07:26:11.063Z,45.65
2022-11-21T07:28:38.167Z,49.28
2022-11-21T07:31:10.094Z,53.15
2022-11-21T07:33:40.018Z,56.22
2022-11-21T07:36:07.375Z,49.03
2022-11-21T07:38:34.297Z,64.63
2022-11-21T07:41:01.196Z,58.97
2022-11-21T07:43:28.036Z,50.30
2022-11-21T07:45:55.807Z,46.28
2022-11-21T07:48:22.602Z,60.97
2022-11-21T07:50:49.415Z,49.00
2022-11-21T07:53:16.228Z,52.47
2022-11-21T07:55:43.028Z,53.40
2022-11-21T07:58:12.856Z,62.47
2022-11-21T08:00:42.964Z,52.28
2022-11-21T08:03:14.179Z,68.28
2022-11-21T08:05:44.745Z,64.53
2022-11-21T08:08:13.122Z,60.00
2022-11-21T08:10:42.530Z,61.97
2022-11-21T08:13:09.686Z,56.85
2022-11-21T08:15:37.195Z,58.90
2022-11-21T08:18:11.163Z,58.38
2022-11-21T08:20:38.091Z,58.67
2022-11-21T08:23:06.154Z,50.60
2022-11-21T08:25:34.448Z,56.33
2022-11-21T08:28:02.799Z,47.25
2022-11-21T08:30:29.868Z,50.67
2022-11-21T08:32:58.862Z,51.17
2022-11-21T08:35:27.048Z,54.97
2022-11-21T08:38:01.127Z,55.10
2022-11-21T08:40:29.934Z,53.72
2022-11-21T08:43:01.713Z,55.67
2022-11-21T08:45:28.797Z,52.63
2022-11-21T08:47:55.802Z,54.80
2022-11-21T08:50:23.345Z,58.30
2022-11-21T08:52:50.432Z,66.65
2022-11-21T08:55:17.319Z,53.78
2022-11-21T08:57:44.311Z,53.03
2022-11-21T09:00:14.691Z,62.08
2022-11-21T09:02:41.512Z,49.63
2022-11-21T09:05:08.984Z,65.38
2022-11-21T09:07:36.545Z,56.15
2022-11-21T09:10:03.578Z,48.55
2022-11-21T09:12:31.536Z,64.70
2022-11-21T09:15:16.722Z,55.30
2022-11-21T09:18:01.973Z,63.03
2022-11-21T09:20:28.949Z,47.53
2022-11-21T09:22:55.874Z,54.10
2022-11-21T09:25:22.709Z,56.45
2022-11-21T09:27:49.519Z,50.97
2022-11-21T09:30:16.611Z,56.65
2022-11-21T09:32:43.394Z,53.30
2022-11-21T09:35:10.331Z,59.92
2022-11-21T09:37:38.108Z,61.70
2022-11-21T09:40:08.493Z,61.35
2022-11-21T09:42:35.271Z,53.92
2022-11-21T09:45:14.990Z,55.28
2022-11-21T09:47:47.945Z,49.13
2022-11-21T09:50:14.800Z,45.25
2022-11-21T09:52:49.711Z,49.42
2022-11-21T09:55:34.593Z,45.38
2022-11-21T09:58:04.544Z,50.80
2022-11-21T10:00:31.622Z,46.50
2022-11-21T10:05:47.012Z,50.00
2022-11-21T10:08:30.839Z,50.65
2022-11-21T10:11:24.317Z,44.35
2022-11-21T10:14:06.249Z,48.22
2022-11-21T10:16:43.570Z,80.53
2022-11-21T10:19:38.364Z,52.30
2022-11-21T10:22:07.933Z,48.47
2022-11-21T10:24:57.797Z,58.70
2022-11-21T10:27:35.040Z,51.88
2022-11-21T10:30:07.146Z,48.75
2022-11-21T10:32:40.556Z,42.03
2022-11-21T10:35:35.143Z,39.35
2022-11-21T10:38:03.694Z,37.80
2022-11-21T10:40:46.174Z,42.40
2022-11-21T10:43:53.056Z,41.90
2022-11-21T10:46:19.922Z,38.90
2022-11-21T10:49:04.173Z,40.40
2022-11-21T10:51:55.648Z,41.60
2022-11-21T10:54:34.503Z,45.30
2022-11-21T10:57:19.432Z,40.22
2022-11-21T11:00:11.204Z,39.42
2022-11-21T11:02:38.561Z,36.90
2022-11-21T11:05:17.852Z,43.65
2022-11-21T11:07:59.337Z,38.58
2022-11-21T11:10:27.928Z,37.30
2022-11-21T11:13:44.004Z,41.67
2022-11-21T11:16:15.330Z,32.63
2022-11-21T11:19:03.256Z,40.38
2022-11-21T11:21:45.025Z,34.50
2022-11-21T11:24:11.832Z,41.60
2022-11-21T11:26:48.480Z,37.17
2022-11-21T11:29:15.700Z,37.55
2022-11-21T11:31:56.156Z,35.45
2022-11-21T11:34:38.829Z,38.83
2022-11-21T11:37:26.573Z,31.35
2022-11-21T11:40:35.909Z,36.17
2022-11-21T11:43:52.467Z,37.35
2022-11-21T11:46:40.789Z,33.88
2022-11-21T11:49:32.429Z,34.42
2022-11-21T11:52:06.033Z,31.20
2022-11-21T11:54:47.576Z,34.80
2022-11-21T11:57:14.454Z,36.10
2022-11-21T11:59:47.687Z,35.38
2022-11-21T12:02:29.732Z,34.67
2022-11-21T12:05:23.529Z,32.58
2022-11-21T12:08:40.006Z,37.25
2022-11-21T12:11:25.697Z,40.80
2022-11-21T12:13:55.456Z,39.95
2022-11-21T12:16:26.609Z,40.00
2022-11-21T12:19:05.946Z,33.00
2022-11-21T12:21:32.750Z,43.28
2022-11-21T12:24:03.136Z,40.08
2022-11-21T12:26:32.661Z,33.55
2022-11-21T12:29:31.132Z,34.90
2022-11-21T12:32:33.813Z,42.35
2022-11-21T12:35:15.607Z,35.15
2022-11-21T12:37:51.573Z,34.35
2022-11-21T12:40:23.865Z,31.23
2022-11-21T12:42:50.623Z,39.83
2022-11-21T12:45:29.177Z,45.35
2022-11-21T12:48:35.398Z,43.78
2022-11-21T12:51:46.069Z,38.30
2022-11-21T12:54:31.070Z,45.63
2022-11-21T12:57:17.120Z,44.30
2022-11-21T12:59:47.309Z,42.10
2022-11-21T13:02:23.943Z,35.63
2022-11-21T13:04:53.888Z,45.25
2022-11-21T13:07:23.002Z,43.58
2022-11-21T13:09:53.491Z,44.60
2022-11-21T13:12:44.933Z,44.72
2022-11-21T13:15:38.559Z,43.50
2022-11-21T13:18:23.189Z,42.50
2022-11-21T13:20:51.818Z,35.72
2022-11-21T13:23:42.075Z,42.22
2022-11-21T13:26:28.782Z,42.97
2022-11-21T13:29:14.611Z,50.17
2022-11-21T13:31:41.858Z,38.92
2022-11-21T13:34:37.666Z,44.22
2022-11-21T13:37:05.724Z,50.70
2022-11-21T13:39:34.685Z,46.45
2022-11-21T13:42:24.974Z,42.40
2022-11-21T13:44:52.250Z,38.20
2022-11-21T13:47:57.914Z,36.83
2022-11-21T13:50:24.914Z,35.80
2022-11-21T13:53:20.371Z,39.90
2022-11-21T13:56:17.011Z,48.40
2022-11-21T13:59:07.738Z,49.00
2022-11-21T14:01:53.127Z,43.25
2022-11-21T14:04:44.648Z,39.35
2022-11-21T14:07:36.183Z,48.55
2022-11-21T14:10:06.672Z,46.10
2022-11-21T14:12:44.660Z,49.05
2022-11-21T14:15:16.454Z,51.60
2022-11-21T14:17:53.430Z,64.10
2022-11-21T14:20:48.231Z,53.05
2022-11-21T14:23:14.967Z,55.70
2022-11-21T14:26:04.215Z,63.38
2022-11-21T14:28:35.602Z,58.63
2022-11-21T14:31:10.326Z,57.80
2022-11-21T14:33:47.827Z,61.25
2022-11-21T14:36:22.352Z,55.85
2022-11-21T14:39:13.715Z,52.50
2022-11-21T14:41:40.226Z,58.30
2022-11-21T14:44:16.645Z,67.38
2022-11-21T14:46:44.972Z,58.03
2022-11-21T14:49:17.875Z,60.65
2022-11-21T14:51:58.055Z,64.65
2022-11-21T14:54:34.796Z,67.82
2022-11-21T14:57:08.232Z,63.95
2022-11-21T14:59:42.911Z,55.40
2022-11-21T15:02:15.107Z,64.03
2022-11-21T15:04:43.339Z,56.92
2022-11-21T15:07:31.278Z,63.13
2022-11-21T15:10:36.128Z,60.78
2022-11-21T15:12:48.827Z,64.25
2022-11-21T15:15:21.422Z,59.70
2022-11-21T15:18:25.959Z,61.17
2022-11-21T15:20:47.843Z,54.55
2022-11-21T15:23:36.716Z,60.42
2022-11-21T15:26:04.003Z,68.97
2022-11-21T15:28:31.729Z,60.78
2022-11-21T15:31:18.984Z,64.15
2022-11-21T15:34:27.263Z,57.97
2022-11-21T15:36:43.331Z,55.00
2022-11-21T15:39:18.123Z,59.88
2022-11-21T15:41:46.069Z,64.85
2022-11-21T15:44:13.000Z,52.35
2022-11-21T15:46:43.266Z,60.83
2022-11-21T15:49:31.896Z,72.68
2022-11-21T15:52:06.932Z,59.83
2022-11-21T15:54:35.716Z,53.40
2022-11-21T15:57:02.492Z,60.80
2022-11-21T15:59:29.387Z,51.38
2022-11-21T16:01:56.317Z,62.78
2022-11-21T16:04:25.816Z,63.15
2022-11-21T16:06:53.703Z,63.42
2022-11-21T16:09:20.492Z,67.65
2022-11-21T16:11:47.443Z,58.58
2022-11-21T16:14:16.536Z,53.47
2022-11-21T16:16:44.572Z,60.08
2022-11-21T16:19:12.744Z,55.13
2022-11-21T16:21:40.000Z,66.20
2022-11-21T16:24:07.324Z,64.10
2022-11-21T16:26:34.335Z,61.17
2022-11-21T16:29:05.279Z,58.38
2022-11-21T16:31:32.659Z,71.57
2022-11-21T16:34:00.630Z,67.68
2022-11-21T16:36:29.558Z,61.53
2022-11-21T16:39:01.741Z,57.38
2022-11-21T16:41:29.205Z,62.28
2022-11-21T16:43:56.234Z,73.88
2022-11-21T16:46:24.654Z,57.60
2022-11-21T16:49:02.191Z,64.82
2022-11-21T16:51:29.733Z,68.13
2022-11-21T16:53:59.676Z,59.00
2022-11-21T16:56:29.853Z,51.83
2022-11-21T16:58:56.649Z,69.53
2022-11-21T17:01:25.558Z,62.42
2022-11-21T17:03:52.942Z,64.80
2022-11-21T17:06:27.018Z,71.90
2022-11-21T17:08:54.168Z,63.13
2022-11-21T17:11:28.292Z,53.58
2022-11-21T17:13:56.456Z,59.20
2022-11-21T17:16:24.030Z,61.38
2022-11-21T17:18:58.829Z,62.90
2022-11-21T17:21:26.644Z,61.08
2022-11-21T17:23:54.232Z,55.28
2022-11-21T17:26:24.006Z,59.17
2022-11-21T17:29:01.184Z,58.42
2022-11-21T17:31:28.469Z,64.38
2022-11-21T17:34:00.760Z,56.53
2022-11-21T17:36:29.042Z,60.72
2022-11-21T17:38:56.278Z,52.83
2022-11-21T17:41:24.606Z,62.90
2022-11-21T17:43:57.972Z,59.33
2022-11-21T17:46:25.666Z,62.33
2022-11-21T17:48:57.242Z,62.83
2022-11-21T17:51:32.244Z,60.97
2022-11-21T17:54:00.816Z,54.22
2022-11-21T17:56:29.998Z,51.40
2022-11-21T17:58:57.041Z,60.83
2022-11-21T18:01:24.181Z,58.63
2022-11-21T18:04:00.985Z,52.55
2022-11-21T18:06:32.288Z,52.15
2022-11-21T18:08:59.125Z,55.42
2022-11-21T18:11:37.804Z,62.45
2022-11-21T18:14:07.543Z,58.78
2022-11-21T18:16:34.846Z,51.97
2022-11-21T18:19:01.775Z,53.05
2022-11-21T18:21:30.890Z,55.45
2022-11-21T18:23:59.675Z,56.80
2022-11-21T18:26:29.035Z,55.85
2022-11-21T18:29:20.591Z,62.92
2022-11-21T18:31:45.447Z,54.58
2022-11-21T18:34:12.541Z,56.05
2022-11-21T18:36:39.414Z,56.25
2022-11-21T18:39:14.076Z,59.47
2022-11-21T18:41:42.849Z,55.55
2022-11-21T18:44:10.053Z,55.92
2022-11-21T18:46:38.741Z,57.40
2022-11-21T18:49:07.726Z,53.72
2022-11-21T18:51:36.015Z,46.60
2022-11-21T18:54:08.695Z,64.72
2022-11-21T18:56:37.132Z,53.97
2022-11-21T18:59:05.751Z,50.85
2022-11-21T19:01:34.222Z,50.90
2022-11-21T19:04:01.116Z,57.85
2022-11-21T19:06:28.897Z,53.13
2022-11-21T19:08:57.687Z,53.15
2022-11-21T19:11:29.661Z,49.92
2022-11-21T19:13:57.839Z,50.92
2022-11-21T19:16:27.086Z,45.25
2022-11-21T19:19:26.469Z,52.72
2022-11-21T19:21:41.989Z,48.30
2022-11-21T19:24:13.722Z,64.38
2022-11-21T19:26:40.892Z,41.05
2022-11-21T19:29:07.901Z,49.42
2022-11-21T19:31:39.098Z,61.95
2022-11-21T19:34:09.674Z,44.90
2022-11-21T19:36:36.677Z,51.05
2022-11-21T19:39:03.620Z,51.67
2022-11-21T19:41:30.838Z,48.08
2022-11-21T19:44:01.806Z,45.90
2022-11-21T19:46:34.456Z,50.65
2022-11-21T19:49:01.929Z,56.97
2022-11-21T19:51:31.044Z,49.10
2022-11-21T19:53:57.914Z,54.45
2022-11-21T19:56:26.382Z,56.42
2022-11-21T19:58:55.243Z,55.90
2022-11-21T20:01:27.769Z,48.55
2022-11-21T20:03:57.664Z,53.40
2022-11-21T20:06:26.859Z,49.42
2022-11-21T20:09:01.834Z,50.78
2022-11-21T20:11:30.620Z,58.55
2022-11-21T20:13:58.095Z,54.53
2022-11-21T20:16:30.821Z,51.20
2022-11-21T20:19:00.001Z,47.40
2022-11-21T20:21:27.925Z,50.53
2022-11-21T20:23:54.958Z,47.47
2022-11-21T20:26:22.970Z,49.42
2022-11-21T20:28:50.989Z,46.17
2022-11-21T20:31:20.523Z,55.33
2022-11-21T20:33:52.044Z,52.03
2022-11-21T20:36:21.172Z,46.83
2022-11-21T20:38:55.763Z,46.38
2022-11-21T20:41:24.555Z,46.20
2022-11-21T20:46:59.746Z,49.22
2022-11-21T20:49:26.716Z,42.42
2022-11-21T20:54:40.523Z,47.05
2022-11-21T20:57:11.783Z,46.20
2022-11-21T20:59:41.493Z,49.88
2022-11-21T21:02:11.995Z,40.53
2022-11-21T21:04:39.004Z,42.90
2022-11-21T21:07:05.806Z,44.83
2022-11-21T21:09:32.709Z,50.13
2022-11-21T21:11:59.478Z,46.72
2022-11-21T21:14:26.252Z,48.22
2022-11-21T21:16:53.162Z,44.00
2022-11-21T21:19:22.596Z,49.67
2022-11-21T21:21:49.444Z,50.05
2022-11-21T21:24:16.324Z,45.35
2022-11-21T21:26:45.690Z,42.45
2022-11-21T21:29:14.928Z,50.25
2022-11-21T21:31:45.480Z,46.17
2022-11-21T21:34:16.978Z,43.88
2022-11-21T21:36:43.741Z,45.13
2022-11-21T21:39:10.526Z,42.25
2022-11-21T21:41:39.984Z,42.13
2022-11-21T21:44:07.334Z,49.70
2022-11-21T21:46:34.140Z,41.90
2022-11-21T21:49:01.039Z,44.38
2022-11-21T21:51:30.645Z,50.95
2022-11-21T21:53:58.934Z,46.40
2022-11-21T21:56:27.654Z,41.10
2022-11-21T21:58:55.689Z,43.00
2022-11-21T22:01:30.757Z,45.78
2022-11-21T22:03:59.986Z,35.30
2022-11-21T22:06:27.059Z,39.92
2022-11-21T22:08:55.004Z,39.13
2022-11-21T22:11:24.700Z,43.38
2022-11-21T22:14:02.852Z,48.67
2022-11-21T22:16:30.413Z,44.13
2022-11-21T22:18:57.220Z,39.42
2022-11-21T22:21:32.303Z,38.95
2022-11-21T22:26:47.854Z,42.42
2022-11-21T22:29:14.654Z,42.70
2022-11-21T22:31:41.478Z,36.25
2022-11-21T22:34:12.258Z,42.55
2022-11-21T22:36:39.146Z,44.92
2022-11-21T22:39:05.946Z,39.33
2022-11-21T22:41:32.764Z,45.38
2022-11-21T22:44:00.038Z,39.55
2022-11-21T22:46:28.979Z,39.08
2022-11-21T22:48:56.119Z,38.03
2022-11-21T22:51:25.838Z,35.85
2022-11-21T22:53:52.898Z,34.97
2022-11-21T22:56:21.695Z,38.28
2022-11-21T22:58:49.058Z,45.70
2022-11-21T23:01:17.848Z,41.30
2022-11-21T23:03:45.439Z,36.67
2022-11-21T23:06:15.303Z,41.22
2022-11-21T23:08:42.667Z,38.00
2022-11-21T23:11:10.923Z,40.75
2022-11-21T23:13:39.080Z,40.30
2022-11-21T23:16:06.702Z,41.30
2022-11-21T23:18:34.231Z,40.08
2022-11-21T23:21:01.610Z,38.45
2022-11-21T23:23:28.747Z,35.95
2022-11-21T23:25:55.497Z,36.55
2022-11-21T23:28:22.741Z,37.70
2022-11-21T23:30:50.803Z,44.78
2022-11-21T23:33:18.389Z,47.88
2022-11-21T23:35:46.431Z,40.97
2022-11-21T23:38:15.190Z,37.63
2022-11-21T23:40:42.007Z,39.85
2022-11-21T23:43:08.790Z,44.92
2022-11-21T23:45:35.622Z,43.88
2022-11-21T23:48:02.424Z,44.67
2022-11-21T23:50:29.194Z,37.90
2022-11-21T23:52:55.952Z,36.42
2022-11-21T23:55:23.133Z,43.13
2022-11-21T23:57:50.395Z,45.10
